sensor_id;sensor_type;location;lat;lon;timestamp;pressure;altitude;pressure_sealevel;temperature;humidity
9235;BME280;4652;42.716;23.218;2024-03-23T00:53:10;94768.78;;;0.21;70.17
9235;BME280;4652;42.716;23.218;2024-03-23T00:55:35;94764.63;;;0.27;71.25
9235;BME280;4652;42.716;23.218;2024-03-23T00:58:01;94766.41;;;0.26;70.06
9235;BME280;4652;42.716;23.218;2024-03-23T01:00:27;94768.09;;;0.39;70.27
9235;BME280;4652;42.716;23.218;2024-03-23T01:02:53;94769.66;;;0.40;70.38
9235;BME280;4652;42.716;23.218;2024-03-23T01:05:19;94768.63;;;0.47;70.66
9235;BME280;4652;42.716;23.218;2024-03-23T01:07:44;94760.84;;;0.36;69.47
9235;BME280;4652;42.716;23.218;2024-03-23T01:10:10;94754.66;;;0.18;69.56
9235;BME280;4652;42.716;23.218;2024-03-23T01:12:35;94762.38;;;0.05;70.93
9235;BME280;4652;42.716;23.218;2024-03-23T01:15:01;94763.97;;;-0.01;70.85
9235;BME280;4652;42.716;23.218;2024-03-23T01:17:27;94773.09;;;-0.11;71.27
9235;BME280;4652;42.716;23.218;2024-03-23T01:19:52;94767.50;;;0.05;71.33
9235;BME280;4652;42.716;23.218;2024-03-23T01:22:18;94764.53;;;0.08;69.90
9235;BME280;4652;42.716;23.218;2024-03-23T01:24:43;94762.25;;;0.00;69.64
9235;BME280;4652;42.716;23.218;2024-03-23T01:27:09;94767.75;;;-0.10;70.31
9235;BME280;4652;42.716;23.218;2024-03-23T01:29:35;94764.50;;;-0.24;71.63
9235;BME280;4652;42.716;23.218;2024-03-23T01:32:00;94761.72;;;-0.15;70.02
9235;BME280;4652;42.716;23.218;2024-03-23T01:34:26;94765.69;;;-0.33;71.73
9235;BME280;4652;42.716;23.218;2024-03-23T01:36:53;94768.31;;;-0.46;72.02
9235;BME280;4652;42.716;23.218;2024-03-23T01:39:19;94762.41;;;-0.40;71.10
9235;BME280;4652;42.716;23.218;2024-03-23T01:41:44;94765.69;;;-0.33;70.15
9235;BME280;4652;42.716;23.218;2024-03-23T01:44:10;94765.75;;;-0.46;70.19
9235;BME280;4652;42.716;23.218;2024-03-23T01:46:37;94765.41;;;-0.56;71.40
9235;BME280;4652;42.716;23.218;2024-03-23T01:49:06;94760.88;;;-0.54;70.24
9235;BME280;4652;42.716;23.218;2024-03-23T01:51:33;94754.44;;;-0.63;70.71
9235;BME280;4652;42.716;23.218;2024-03-23T01:54:00;94750.88;;;-0.62;71.17
9235;BME280;4652;42.716;23.218;2024-03-23T01:56:32;94755.44;;;-0.64;72.15
9235;BME280;4652;42.716;23.218;2024-03-23T01:59:05;94760.56;;;-0.71;72.51
9235;BME280;4652;42.716;23.218;2024-03-23T02:03:48;94764.88;;;-0.85;72.64
9235;BME280;4652;42.716;23.218;2024-03-23T02:06:14;94765.50;;;-0.96;72.63
9235;BME280;4652;42.716;23.218;2024-03-23T02:08:40;94767.84;;;-1.01;73.70
9235;BME280;4652;42.716;23.218;2024-03-23T02:11:06;94767.69;;;-1.06;73.94
9235;BME280;4652;42.716;23.218;2024-03-23T02:13:31;94770.22;;;-1.06;73.53
9235;BME280;4652;42.716;23.218;2024-03-23T02:15:58;94774.13;;;-1.04;73.54
9235;BME280;4652;42.716;23.218;2024-03-23T02:18:25;94772.78;;;-1.06;74.15
9235;BME280;4652;42.716;23.218;2024-03-23T02:20:51;94765.91;;;-1.06;73.94
9235;BME280;4652;42.716;23.218;2024-03-23T02:23:17;94772.94;;;-1.01;74.30
9235;BME280;4652;42.716;23.218;2024-03-23T02:25:44;94773.34;;;-1.04;74.60
9235;BME280;4652;42.716;23.218;2024-03-23T02:28:10;94778.84;;;-1.07;74.97
9235;BME280;4652;42.716;23.218;2024-03-23T02:30:37;94769.44;;;-1.27;74.77
9235;BME280;4652;42.716;23.218;2024-03-23T02:33:04;94772.56;;;-1.11;74.93
9235;BME280;4652;42.716;23.218;2024-03-23T02:35:30;94773.34;;;-1.11;73.82
9235;BME280;4652;42.716;23.218;2024-03-23T02:37:57;94766.69;;;-1.12;74.42
9235;BME280;4652;42.716;23.218;2024-03-23T02:40:23;94763.75;;;-1.15;74.34
9235;BME280;4652;42.716;23.218;2024-03-23T02:42:50;94765.09;;;-1.20;74.55
9235;BME280;4652;42.716;23.218;2024-03-23T02:45:16;94768.25;;;-1.18;75.24
9235;BME280;4652;42.716;23.218;2024-03-23T02:47:43;94765.53;;;-1.23;74.91
9235;BME280;4652;42.716;23.218;2024-03-23T02:50:10;94772.59;;;-1.31;75.09
9235;BME280;4652;42.716;23.218;2024-03-23T02:52:37;94761.59;;;-1.25;74.76
9235;BME280;4652;42.716;23.218;2024-03-23T02:55:03;94762.00;;;-1.22;74.72
9235;BME280;4652;42.716;23.218;2024-03-23T02:57:30;94762.38;;;-1.38;74.78
9235;BME280;4652;42.716;23.218;2024-03-23T02:59:56;94765.50;;;-1.36;75.50
9235;BME280;4652;42.716;23.218;2024-03-23T03:02:23;94763.56;;;-1.41;76.25
9235;BME280;4652;42.716;23.218;2024-03-23T03:04:49;94766.31;;;-1.29;75.20
9235;BME280;4652;42.716;23.218;2024-03-23T03:07:15;94764.16;;;-1.25;74.91
9235;BME280;4652;42.716;23.218;2024-03-23T03:09:41;94760.81;;;-1.46;75.72
9235;BME280;4652;42.716;23.218;2024-03-23T03:12:08;94761.63;;;-1.38;74.53
9235;BME280;4652;42.716;23.218;2024-03-23T03:14:34;94762.97;;;-1.36;74.65
9235;BME280;4652;42.716;23.218;2024-03-23T03:17:01;94760.03;;;-1.33;74.54
9235;BME280;4652;42.716;23.218;2024-03-23T03:19:27;94776.50;;;-1.35;74.13
9235;BME280;4652;42.716;23.218;2024-03-23T03:21:53;94761.41;;;-1.44;74.70
9235;BME280;4652;42.716;23.218;2024-03-23T03:24:20;94762.00;;;-1.35;74.83
9235;BME280;4652;42.716;23.218;2024-03-23T03:26:47;94760.41;;;-1.49;74.51
9235;BME280;4652;42.716;23.218;2024-03-23T03:29:13;94760.41;;;-1.43;74.68
9235;BME280;4652;42.716;23.218;2024-03-23T03:31:39;94753.38;;;-1.41;75.15
9235;BME280;4652;42.716;23.218;2024-03-23T03:34:06;94759.06;;;-1.45;75.13
9235;BME280;4652;42.716;23.218;2024-03-23T03:36:32;94760.81;;;-1.52;75.34
9235;BME280;4652;42.716;23.218;2024-03-23T03:38:58;94762.00;;;-1.48;75.16
9235;BME280;4652;42.716;23.218;2024-03-23T03:41:24;94758.47;;;-1.54;75.28
9235;BME280;4652;42.716;23.218;2024-03-23T03:43:51;94759.25;;;-1.53;74.51
9235;BME280;4652;42.716;23.218;2024-03-23T03:46:17;94769.66;;;-1.42;74.11
9235;BME280;4652;42.716;23.218;2024-03-23T03:48:43;94768.84;;;-1.49;74.53
9235;BME280;4652;42.716;23.218;2024-03-23T03:51:11;94771.19;;;-1.54;75.43
9235;BME280;4652;42.716;23.218;2024-03-23T03:53:36;94764.94;;;-1.58;75.42
9235;BME280;4652;42.716;23.218;2024-03-23T03:56:02;94768.66;;;-1.60;75.25
9235;BME280;4652;42.716;23.218;2024-03-23T03:58:28;94763.72;;;-1.62;74.98
9235;BME280;4652;42.716;23.218;2024-03-23T04:00:54;94764.13;;;-1.65;75.96
9235;BME280;4652;42.716;23.218;2024-03-23T04:03:19;94759.41;;;-1.81;75.46
9235;BME280;4652;42.716;23.218;2024-03-23T04:05:52;94770.97;;;-1.85;75.67
9235;BME280;4652;42.716;23.218;2024-03-23T04:08:19;94768.03;;;-1.76;76.04
9235;BME280;4652;42.716;23.218;2024-03-23T04:10:45;94767.63;;;-1.86;74.66
9235;BME280;4652;42.716;23.218;2024-03-23T04:13:11;94770.81;;;-1.71;75.26
9235;BME280;4652;42.716;23.218;2024-03-23T04:15:37;94768.63;;;-1.74;75.04
9235;BME280;4652;42.716;23.218;2024-03-23T04:18:03;94775.47;;;-1.81;74.54
9235;BME280;4652;42.716;23.218;2024-03-23T04:20:28;94779.97;;;-1.83;74.70
9235;BME280;4652;42.716;23.218;2024-03-23T04:22:54;94767.25;;;-1.76;75.59
9235;BME280;4652;42.716;23.218;2024-03-23T04:25:19;94769.19;;;-1.85;75.35
9235;BME280;4652;42.716;23.218;2024-03-23T04:27:45;94774.69;;;-1.75;74.99
9235;BME280;4652;42.716;23.218;2024-03-23T04:30:11;94770.41;;;-1.74;76.32
9235;BME280;4652;42.716;23.218;2024-03-23T04:32:38;94773.34;;;-1.64;75.35
9235;BME280;4652;42.716;23.218;2024-03-23T04:35:04;94770.56;;;-1.82;75.91
9235;BME280;4652;42.716;23.218;2024-03-23T04:37:35;94768.25;;;-1.71;75.92
9235;BME280;4652;42.716;23.218;2024-03-23T04:40:02;94782.94;;;-1.59;74.99
9235;BME280;4652;42.716;23.218;2024-03-23T04:42:28;94786.09;;;-1.57;74.91
9235;BME280;4652;42.716;23.218;2024-03-23T04:44:54;94783.16;;;-1.48;75.56
9235;BME280;4652;42.716;23.218;2024-03-23T04:47:20;94791.56;;;-1.74;76.58
9235;BME280;4652;42.716;23.218;2024-03-23T04:49:46;94790.22;;;-1.50;75.41
9235;BME280;4652;42.716;23.218;2024-03-23T04:52:11;94794.31;;;-1.55;76.33
9235;BME280;4652;42.716;23.218;2024-03-23T04:54:37;94784.34;;;-1.30;75.12
9235;BME280;4652;42.716;23.218;2024-03-23T04:57:05;94786.09;;;-1.24;76.70
9235;BME280;4652;42.716;23.218;2024-03-23T04:59:31;94785.72;;;-1.14;76.23
9235;BME280;4652;42.716;23.218;2024-03-23T05:01:57;94784.94;;;-1.02;76.09
9235;BME280;4652;42.716;23.218;2024-03-23T05:04:23;94790.22;;;-0.90;75.46
9235;BME280;4652;42.716;23.218;2024-03-23T05:06:48;94782.31;;;-0.75;75.68
9235;BME280;4652;42.716;23.218;2024-03-23T05:09:14;94777.19;;;-0.62;75.17
9235;BME280;4652;42.716;23.218;2024-03-23T05:11:40;94786.16;;;-0.39;74.84
9235;BME280;4652;42.716;23.218;2024-03-23T05:14:07;94776.72;;;-0.32;74.19
9235;BME280;4652;42.716;23.218;2024-03-23T05:16:33;94783.53;;;-0.13;73.37
9235;BME280;4652;42.716;23.218;2024-03-23T05:18:58;94780.69;;;0.02;72.89
9235;BME280;4652;42.716;23.218;2024-03-23T05:21:24;94780.47;;;0.10;72.90
9235;BME280;4652;42.716;23.218;2024-03-23T05:23:49;94780.53;;;0.29;72.85
9235;BME280;4652;42.716;23.218;2024-03-23T05:26:16;94775.50;;;0.47;71.36
9235;BME280;4652;42.716;23.218;2024-03-23T05:28:42;94782.75;;;0.50;74.19
9235;BME280;4652;42.716;23.218;2024-03-23T05:31:07;94787.84;;;0.82;72.67
9235;BME280;4652;42.716;23.218;2024-03-23T05:33:37;94781.25;;;1.17;71.37
9235;BME280;4652;42.716;23.218;2024-03-23T05:36:13;94781.81;;;1.38;71.20
9235;BME280;4652;42.716;23.218;2024-03-23T05:38:39;94788.00;;;1.67;71.53
9235;BME280;4652;42.716;23.218;2024-03-23T05:41:05;94785.53;;;1.79;70.45
9235;BME280;4652;42.716;23.218;2024-03-23T05:43:30;94778.53;;;2.16;69.93
9235;BME280;4652;42.716;23.218;2024-03-23T05:45:57;94779.53;;;2.99;68.25
9235;BME280;4652;42.716;23.218;2024-03-23T05:48:23;94782.91;;;7.30;54.40
9235;BME280;4652;42.716;23.218;2024-03-23T05:50:49;94782.44;;;12.48;40.04
9235;BME280;4652;42.716;23.218;2024-03-23T05:53:19;94779.44;;;16.42;30.92
9235;BME280;4652;42.716;23.218;2024-03-23T05:56:00;94786.78;;;19.01;26.17
9235;BME280;4652;42.716;23.218;2024-03-23T05:58:31;94782.69;;;17.72;27.18
9235;BME280;4652;42.716;23.218;2024-03-23T06:00:58;94781.50;;;19.01;25.00
9235;BME280;4652;42.716;23.218;2024-03-23T06:03:25;94780.56;;;22.21;21.27
9235;BME280;4652;42.716;23.218;2024-03-23T06:05:52;94784.78;;;23.35;19.56
9235;BME280;4652;42.716;23.218;2024-03-23T06:08:38;94776.00;;;22.73;19.00
9235;BME280;4652;42.716;23.218;2024-03-23T06:11:04;94779.50;;;24.01;18.27
9235;BME280;4652;42.716;23.218;2024-03-23T06:13:36;94773.03;;;24.81;17.53
9235;BME280;4652;42.716;23.218;2024-03-23T06:16:03;94774.06;;;24.43;17.97
9235;BME280;4652;42.716;23.218;2024-03-23T06:18:29;94777.03;;;24.98;17.88
9235;BME280;4652;42.716;23.218;2024-03-23T06:21:19;94771.97;;;25.98;16.52
9235;BME280;4652;42.716;23.218;2024-03-23T06:24:13;94771.53;;;24.27;17.71
9235;BME280;4652;42.716;23.218;2024-03-23T06:26:40;94774.41;;;26.21;16.36
9235;BME280;4652;42.716;23.218;2024-03-23T06:29:06;94770.47;;;26.52;15.06
9235;BME280;4652;42.716;23.218;2024-03-23T06:31:32;94780.19;;;26.99;14.97
9235;BME280;4652;42.716;23.218;2024-03-23T06:33:59;94770.66;;;27.02;14.66
9235;BME280;4652;42.716;23.218;2024-03-23T06:36:25;94764.69;;;27.30;14.63
9235;BME280;4652;42.716;23.218;2024-03-23T06:38:51;94773.94;;;26.63;14.73
9235;BME280;4652;42.716;23.218;2024-03-23T06:41:18;94778.91;;;25.65;16.71
9235;BME280;4652;42.716;23.218;2024-03-23T06:43:45;94773.88;;;24.89;16.47
9235;BME280;4652;42.716;23.218;2024-03-23T06:46:12;94773.91;;;26.04;17.49
9235;BME280;4652;42.716;23.218;2024-03-23T06:48:38;94774.84;;;26.26;15.60
9235;BME280;4652;42.716;23.218;2024-03-23T06:51:05;94783.28;;;25.47;16.98
9235;BME280;4652;42.716;23.218;2024-03-23T06:53:32;94778.25;;;26.96;15.28
9235;BME280;4652;42.716;23.218;2024-03-23T06:55:59;94779.25;;;26.04;15.53
9235;BME280;4652;42.716;23.218;2024-03-23T06:58:27;94784.59;;;25.26;16.72
9235;BME280;4652;42.716;23.218;2024-03-23T07:00:53;94775.53;;;26.16;15.08
9235;BME280;4652;42.716;23.218;2024-03-23T07:03:20;94777.47;;;25.75;15.47
9235;BME280;4652;42.716;23.218;2024-03-23T07:05:48;94777.97;;;23.57;17.50
9235;BME280;4652;42.716;23.218;2024-03-23T07:08:14;94769.59;;;25.11;17.12
9235;BME280;4652;42.716;23.218;2024-03-23T07:10:46;94771.22;;;24.06;18.17
9235;BME280;4652;42.716;23.218;2024-03-23T07:13:13;94767.44;;;24.90;17.16
9235;BME280;4652;42.716;23.218;2024-03-23T07:15:39;94764.50;;;26.84;15.43
9235;BME280;4652;42.716;23.218;2024-03-23T07:18:08;94761.22;;;25.46;17.13
9235;BME280;4652;42.716;23.218;2024-03-23T07:20:34;94767.09;;;25.25;16.51
9235;BME280;4652;42.716;23.218;2024-03-23T07:23:01;94756.72;;;26.50;15.74
9235;BME280;4652;42.716;23.218;2024-03-23T07:25:27;94765.38;;;22.02;18.84
9235;BME280;4652;42.716;23.218;2024-03-23T07:27:55;94760.56;;;23.79;18.22
9235;BME280;4652;42.716;23.218;2024-03-23T07:30:21;94751.88;;;22.58;20.00
9235;BME280;4652;42.716;23.218;2024-03-23T07:32:47;94758.72;;;23.60;18.68
9235;BME280;4652;42.716;23.218;2024-03-23T07:35:13;94757.78;;;21.85;20.37
9235;BME280;4652;42.716;23.218;2024-03-23T07:37:41;94743.91;;;23.36;19.34
9235;BME280;4652;42.716;23.218;2024-03-23T07:40:08;94748.97;;;23.45;19.15
9235;BME280;4652;42.716;23.218;2024-03-23T07:42:35;94754.97;;;24.64;17.71
9235;BME280;4652;42.716;23.218;2024-03-23T07:45:01;94748.13;;;26.19;16.31
9235;BME280;4652;42.716;23.218;2024-03-23T07:47:27;94743.72;;;25.86;16.45
9235;BME280;4652;42.716;23.218;2024-03-23T07:49:54;94746.41;;;25.90;17.13
9235;BME280;4652;42.716;23.218;2024-03-23T07:52:20;94747.41;;;26.22;15.74
9235;BME280;4652;42.716;23.218;2024-03-23T07:54:47;94740.91;;;24.63;17.44
9235;BME280;4652;42.716;23.218;2024-03-23T07:57:13;94744.41;;;23.65;18.76
9235;BME280;4652;42.716;23.218;2024-03-23T07:59:39;94734.72;;;22.01;20.67
9235;BME280;4652;42.716;23.218;2024-03-23T10:33:48;94529.22;;;16.08;31.30
9235;BME280;4652;42.716;23.218;2024-03-23T10:36:15;94528.66;;;15.76;30.41
9235;BME280;4652;42.716;23.218;2024-03-23T10:38:43;94522.91;;;16.00;31.28
9235;BME280;4652;42.716;23.218;2024-03-23T10:41:10;94519.16;;;16.36;29.48
9235;BME280;4652;42.716;23.218;2024-03-23T10:43:37;94512.03;;;16.45;31.10
9235;BME280;4652;42.716;23.218;2024-03-23T10:46:05;94498.19;;;16.74;29.47
9235;BME280;4652;42.716;23.218;2024-03-23T10:48:32;94496.63;;;17.12;29.47
9235;BME280;4652;42.716;23.218;2024-03-23T10:50:59;94492.22;;;17.03;28.53
9235;BME280;4652;42.716;23.218;2024-03-23T10:53:27;94493.31;;;16.55;29.54
9235;BME280;4652;42.716;23.218;2024-03-23T10:55:55;94488.31;;;16.33;31.14
9235;BME280;4652;42.716;23.218;2024-03-23T10:58:29;94480.38;;;16.50;28.53
9235;BME280;4652;42.716;23.218;2024-03-23T11:00:57;94469.06;;;16.67;28.87
9235;BME280;4652;42.716;23.218;2024-03-23T11:03:37;94462.66;;;16.47;29.87
9235;BME280;4652;42.716;23.218;2024-03-23T11:06:05;94458.22;;;16.30;27.81
9235;BME280;4652;42.716;23.218;2024-03-23T11:08:40;94455.66;;;16.22;28.12
9235;BME280;4652;42.716;23.218;2024-03-23T11:11:18;94446.53;;;16.28;30.35
9235;BME280;4652;42.716;23.218;2024-03-23T11:13:54;94443.78;;;16.16;28.24
9235;BME280;4652;42.716;23.218;2024-03-23T11:16:25;94432.09;;;16.04;28.73
9235;BME280;4652;42.716;23.218;2024-03-23T11:19:37;94428.09;;;16.45;29.74
9235;BME280;4652;42.716;23.218;2024-03-23T11:22:05;94427.47;;;16.48;27.65
9235;BME280;4652;42.716;23.218;2024-03-23T11:24:32;94424.38;;;16.46;28.52
9235;BME280;4652;42.716;23.218;2024-03-23T11:27:01;94429.50;;;16.43;27.67
9235;BME280;4652;42.716;23.218;2024-03-23T11:29:32;94415.84;;;16.88;28.39
9235;BME280;4652;42.716;23.218;2024-03-23T11:31:58;94412.75;;;17.15;25.06
9235;BME280;4652;42.716;23.218;2024-03-23T11:34:27;94409.00;;;17.37;25.29
9235;BME280;4652;42.716;23.218;2024-03-23T11:37:03;94408.38;;;17.40;24.53
9235;BME280;4652;42.716;23.218;2024-03-23T11:39:31;94395.94;;;17.83;25.39
9235;BME280;4652;42.716;23.218;2024-03-23T11:41:58;94391.28;;;18.01;25.98
9235;BME280;4652;42.716;23.218;2024-03-23T11:44:27;94395.00;;;18.12;25.12
9235;BME280;4652;42.716;23.218;2024-03-23T11:47:07;94387.03;;;18.21;24.14
9235;BME280;4652;42.716;23.218;2024-03-23T11:49:34;94376.41;;;18.29;22.30
9235;BME280;4652;42.716;23.218;2024-03-23T11:52:07;94379.91;;;18.46;22.51
9235;BME280;4652;42.716;23.218;2024-03-23T11:54:33;94361.50;;;18.46;20.51
9235;BME280;4652;42.716;23.218;2024-03-23T11:57:01;94372.25;;;18.28;22.75
9235;BME280;4652;42.716;23.218;2024-03-23T11:59:35;94366.63;;;18.17;21.15
9235;BME280;4652;42.716;23.218;2024-03-23T12:02:09;94351.84;;;18.01;22.52
9235;BME280;4652;42.716;23.218;2024-03-23T12:04:37;94343.09;;;18.33;23.58
9235;BME280;4652;42.716;23.218;2024-03-23T12:07:19;94344.94;;;18.45;21.62
9235;BME280;4652;42.716;23.218;2024-03-23T12:09:47;94339.78;;;18.49;20.97
9235;BME280;4652;42.716;23.218;2024-03-23T12:12:27;94340.66;;;18.53;23.52
9235;BME280;4652;42.716;23.218;2024-03-23T12:15:09;94329.28;;;18.36;21.33
9235;BME280;4652;42.716;23.218;2024-03-23T12:17:35;94330.78;;;18.50;24.34
